createdAt,value
2023-04-15T00:00:30.222Z,6.02
2023-04-15T00:02:58.317Z,6.06
2023-04-15T00:05:26.470Z,6.16
2023-04-15T00:07:54.745Z,6.23
2023-04-15T00:10:24.514Z,6.34
2023-04-15T00:12:53.355Z,6.40
2023-04-15T00:15:22.500Z,6.50
2023-04-15T00:17:52.585Z,6.47
2023-04-15T00:20:21.250Z,6.42
2023-04-15T00:22:49.265Z,6.36
2023-04-15T00:25:17.509Z,6.37
2023-04-15T00:27:47.386Z,6.30
2023-04-15T00:30:17.220Z,6.18
2023-04-15T00:32:45.196Z,6.08
2023-04-15T00:35:13.938Z,6.03
2023-04-15T00:37:44.811Z,6.15
2023-04-15T00:40:14.780Z,6.12
2023-04-15T00:42:42.849Z,6.11
2023-04-15T00:45:13.105Z,6.03
2023-04-15T00:47:42.929Z,6.01
2023-04-15T00:50:12.632Z,5.88
2023-04-15T00:52:41.173Z,6.01
2023-04-15T00:55:10.556Z,6.19
2023-04-15T00:57:38.368Z,6.26
2023-04-15T01:00:09.426Z,6.05
2023-04-15T01:02:39.636Z,5.97
2023-04-15T01:05:08.711Z,5.99
2023-04-15T01:07:36.858Z,5.95
2023-04-15T01:10:05.228Z,5.88
2023-04-15T01:12:34.375Z,5.75
2023-04-15T01:15:03.759Z,5.58
2023-04-15T01:17:32.069Z,5.52
2023-04-15T01:20:01.783Z,5.62
2023-04-15T01:22:31.983Z,5.64
2023-04-15T01:25:08.321Z,5.55
2023-04-15T01:27:41.236Z,5.54
2023-04-15T01:30:11.775Z,5.51
2023-04-15T01:32:40.148Z,5.57
2023-04-15T01:35:09.058Z,5.61
2023-04-15T01:37:38.176Z,5.41
2023-04-15T01:40:08.062Z,5.24
2023-04-15T01:42:39.200Z,5.07
2023-04-15T01:45:08.433Z,4.89
2023-04-15T01:47:39.421Z,4.85
2023-04-15T01:50:08.629Z,4.80
2023-04-15T01:52:36.748Z,4.75
2023-04-15T01:55:06.368Z,4.75
2023-04-15T01:57:34.530Z,4.66
2023-04-15T02:00:04.652Z,4.55
2023-04-15T02:02:41.673Z,4.45
2023-04-15T02:05:11.158Z,4.37
2023-04-15T02:07:39.303Z,4.25
2023-04-15T02:10:07.989Z,4.13
2023-04-15T02:12:37.189Z,3.97
2023-04-15T02:15:08.270Z,3.82
2023-04-15T02:17:37.466Z,3.83
2023-04-15T02:20:07.102Z,3.96
2023-04-15T02:22:35.450Z,3.96
2023-04-15T02:25:03.749Z,3.98
2023-04-15T02:27:33.688Z,4.03
2023-04-15T02:30:01.889Z,4.07
2023-04-15T02:32:31.689Z,4.17
2023-04-15T02:35:05.635Z,4.13
2023-04-15T02:37:37.187Z,4.45
2023-04-15T02:40:06.684Z,4.54
2023-04-15T02:42:34.884Z,4.65
2023-04-15T02:45:03.486Z,4.73
2023-04-15T02:47:36.990Z,4.59
2023-04-15T02:50:08.167Z,4.58
2023-04-15T02:52:36.318Z,4.62
2023-04-15T02:55:05.290Z,4.44
2023-04-15T02:57:33.579Z,4.27
2023-04-15T03:00:09.776Z,4.14
2023-04-15T03:02:42.301Z,3.87
2023-04-15T03:05:14.021Z,3.70
2023-04-15T03:07:48.414Z,3.53
2023-04-15T03:10:16.874Z,3.49
2023-04-15T03:12:45.005Z,3.85
2023-04-15T03:15:18.692Z,4.03
2023-04-15T03:17:52.193Z,4.24
2023-04-15T03:20:20.666Z,4.07
2023-04-15T03:22:49.872Z,4.04
2023-04-15T03:25:19.904Z,3.91
2023-04-15T03:27:48.577Z,3.83
2023-04-15T03:30:19.107Z,3.65
2023-04-15T03:32:47.696Z,3.48
2023-04-15T03:35:17.774Z,3.32
2023-04-15T03:37:45.990Z,3.16
2023-04-15T03:40:14.694Z,3.19
2023-04-15T03:42:42.792Z,3.03
2023-04-15T03:45:11.860Z,2.93
2023-04-15T03:47:39.994Z,2.83
2023-04-15T03:50:09.444Z,2.73
2023-04-15T03:52:38.809Z,2.68
2023-04-15T03:55:06.994Z,2.54
2023-04-15T03:57:38.130Z,2.46
2023-04-15T04:00:07.361Z,2.40
2023-04-15T04:02:40.198Z,2.36
2023-04-15T04:05:09.029Z,2.34
2023-04-15T04:07:38.624Z,2.33
2023-04-15T04:10:07.957Z,2.28
2023-04-15T04:12:36.028Z,2.22
2023-04-15T04:15:04.090Z,2.21
2023-04-15T04:17:32.246Z,2.26
2023-04-15T04:20:00.243Z,2.32
2023-04-15T04:22:28.404Z,2.30
2023-04-15T04:24:59.428Z,2.28
2023-04-15T04:27:27.445Z,2.23
2023-04-15T04:29:55.612Z,2.25
2023-04-15T04:32:23.735Z,2.26
2023-04-15T04:34:52.418Z,2.39
2023-04-15T04:37:20.398Z,2.56
2023-04-15T04:39:48.497Z,2.67
2023-04-15T04:42:17.907Z,2.76
2023-04-15T04:44:45.790Z,2.74
2023-04-15T04:47:14.171Z,2.77
2023-04-15T04:49:42.404Z,2.76
2023-04-15T04:52:10.404Z,2.71
2023-04-15T04:54:38.424Z,2.65
2023-04-15T04:57:08.032Z,2.73
2023-04-15T04:59:38.095Z,2.70
2023-04-15T05:02:06.420Z,2.74
2023-04-15T05:04:34.994Z,2.77
2023-04-15T05:07:03.265Z,2.81
2023-04-15T05:09:32.544Z,2.87
2023-04-15T05:12:01.471Z,3.09
2023-04-15T05:14:29.455Z,3.18
2023-04-15T05:16:59.184Z,3.26
2023-04-15T05:19:27.334Z,3.25
2023-04-15T05:21:55.416Z,3.38
2023-04-15T05:24:23.582Z,3.58
2023-04-15T05:26:51.549Z,3.89
2023-04-15T05:29:21.757Z,4.57
2023-04-15T05:31:49.791Z,5.13
2023-04-15T05:34:19.446Z,5.46
2023-04-15T05:36:47.674Z,5.77
2023-04-15T05:39:16.304Z,5.91
2023-04-15T05:41:44.315Z,5.75
2023-04-15T05:44:12.428Z,5.64
2023-04-15T05:46:40.555Z,5.51
2023-04-15T05:49:08.622Z,5.51
2023-04-15T05:51:38.198Z,5.60
2023-04-15T05:54:07.107Z,5.57
2023-04-15T05:56:35.238Z,5.61
2023-04-15T05:59:03.982Z,5.58
2023-04-15T06:01:32.173Z,5.58
2023-04-15T06:04:00.322Z,5.61
2023-04-15T06:06:28.751Z,5.81
2023-04-15T06:08:58.348Z,6.05
2023-04-15T06:11:27.037Z,6.30
2023-04-15T06:13:55.533Z,6.37
2023-04-15T06:16:24.097Z,6.80
2023-04-15T06:18:52.401Z,7.11
2023-04-15T06:21:21.080Z,7.59
2023-04-15T06:23:49.146Z,7.87
2023-04-15T06:26:18.653Z,8.28
2023-04-15T06:28:46.688Z,8.85
2023-04-15T06:31:14.802Z,9.48
2023-04-15T06:33:42.914Z,9.98
2023-04-15T06:36:11.031Z,10.70
2023-04-15T06:38:39.345Z,12.34
2023-04-15T06:41:07.975Z,12.95
2023-04-15T06:43:38.225Z,13.38
2023-04-15T06:46:07.341Z,13.98
2023-04-15T06:48:37.389Z,14.22
2023-04-15T06:51:06.246Z,13.73
2023-04-15T06:53:35.847Z,14.25
2023-04-15T06:56:04.023Z,16.02
2023-04-15T06:58:32.400Z,16.77
2023-04-15T07:01:02.146Z,15.89
2023-04-15T07:03:32.642Z,15.94
2023-04-15T07:06:01.742Z,15.79
2023-04-15T07:08:29.892Z,15.02
2023-04-15T07:10:58.031Z,15.08
2023-04-15T07:13:26.151Z,14.79
2023-04-15T07:15:54.157Z,15.62
2023-04-15T07:18:23.873Z,16.42
2023-04-15T07:20:52.289Z,17.41
2023-04-15T07:23:21.625Z,18.03
2023-04-15T07:25:50.392Z,18.50
2023-04-15T07:28:18.561Z,19.67
2023-04-15T07:30:46.948Z,20.62
2023-04-15T07:33:15.183Z,20.96
2023-04-15T07:35:45.180Z,20.73
2023-04-15T07:38:13.785Z,21.19
2023-04-15T07:40:42.455Z,21.26
2023-04-15T07:43:10.861Z,19.91
2023-04-15T07:45:38.951Z,19.80
2023-04-15T07:48:08.536Z,20.00
2023-04-15T07:50:36.647Z,19.85
2023-04-15T07:53:07.334Z,18.92
2023-04-15T07:55:35.465Z,17.55
2023-04-15T07:58:03.726Z,18.44
2023-04-15T08:00:32.296Z,19.40
2023-04-15T08:03:00.630Z,20.39
2023-04-15T08:05:28.960Z,20.76
2023-04-15T08:07:57.382Z,20.89
2023-04-15T08:10:27.458Z,17.92
2023-04-15T08:12:56.647Z,18.61
2023-04-15T08:15:24.823Z,19.63
2023-04-15T08:17:53.284Z,18.78
2023-04-15T08:20:21.621Z,19.74
2023-04-15T08:22:52.250Z,17.21
2023-04-15T08:25:21.622Z,16.85
2023-04-15T08:27:52.308Z,17.06
2023-04-15T08:30:20.648Z,17.36
2023-04-15T08:32:48.893Z,15.99
2023-04-15T08:35:17.288Z,17.56
2023-04-15T08:37:45.485Z,17.19
2023-04-15T08:40:14.250Z,18.62
2023-04-15T08:42:45.739Z,19.13
2023-04-15T08:45:15.511Z,19.98
2023-04-15T08:47:45.398Z,19.54
2023-04-15T08:50:13.961Z,19.39
2023-04-15T08:52:42.564Z,17.82
2023-04-15T08:55:12.591Z,17.70
2023-04-15T08:57:40.753Z,18.57
2023-04-15T09:00:10.521Z,17.32
2023-04-15T09:02:40.394Z,17.82
2023-04-15T09:05:09.685Z,17.93
2023-04-15T09:07:37.903Z,15.74
2023-04-15T09:10:06.612Z,15.54
2023-04-15T09:12:36.986Z,15.65
2023-04-15T09:15:06.193Z,16.85
2023-04-15T09:17:35.153Z,16.94
2023-04-15T09:20:13.224Z,16.81
2023-04-15T09:22:42.351Z,17.04
2023-04-15T09:25:25.482Z,18.45
2023-04-15T09:27:55.353Z,16.73
2023-04-15T09:30:23.884Z,17.86
2023-04-15T09:32:53.487Z,17.55
2023-04-15T09:35:23.909Z,19.06
2023-04-15T09:37:52.647Z,19.83
2023-04-15T09:40:32.826Z,19.80
2023-04-15T09:43:02.319Z,18.82
2023-04-15T09:45:31.147Z,16.53
2023-04-15T09:47:59.998Z,16.63
2023-04-15T09:50:31.219Z,15.77
2023-04-15T09:52:59.881Z,16.94
2023-04-15T09:55:28.053Z,18.13
2023-04-15T09:57:56.064Z,18.64
2023-04-15T10:00:31.924Z,18.37
2023-04-15T10:03:00.680Z,18.54
2023-04-15T10:05:31.938Z,18.47
2023-04-15T10:08:00.865Z,18.50
2023-04-15T10:10:29.147Z,18.24
2023-04-15T10:12:57.837Z,18.27
2023-04-15T10:15:26.443Z,17.03
2023-04-15T10:17:56.008Z,18.11
2023-04-15T10:20:24.508Z,17.31
2023-04-15T10:22:54.516Z,18.51
2023-04-15T10:25:23.542Z,19.20
2023-04-15T10:27:53.019Z,18.68
2023-04-15T10:30:21.875Z,19.71
2023-04-15T10:32:51.628Z,18.81
2023-04-15T10:35:20.765Z,19.71
2023-04-15T10:37:49.053Z,18.07
2023-04-15T10:40:31.725Z,16.73
2023-04-15T10:43:01.705Z,16.36
2023-04-15T10:45:35.006Z,16.22
2023-04-15T10:48:04.902Z,14.89
2023-04-15T10:50:34.027Z,14.69
2023-04-15T10:53:05.278Z,14.77
2023-04-15T10:55:36.686Z,15.69
2023-04-15T10:58:06.194Z,15.92
2023-04-15T11:00:35.919Z,15.64
2023-04-15T11:03:08.318Z,15.11
2023-04-15T11:06:01.526Z,15.53
2023-04-15T11:08:58.923Z,15.85
2023-04-15T11:12:04.935Z,15.87
2023-04-15T11:14:36.839Z,14.82
2023-04-15T11:17:05.707Z,15.06
2023-04-15T11:19:39.201Z,16.04
2023-04-15T11:22:10.856Z,16.25
2023-04-15T11:24:48.744Z,15.99
2023-04-15T11:27:23.398Z,15.88
2023-04-15T11:29:53.326Z,15.41
2023-04-15T11:32:23.263Z,15.20
2023-04-15T11:34:53.749Z,14.86
2023-04-15T11:37:30.092Z,14.44
2023-04-15T11:39:58.668Z,14.48
2023-04-15T11:42:31.558Z,14.96
2023-04-15T11:45:13.795Z,14.89
2023-04-15T11:47:42.989Z,15.24
2023-04-15T11:50:28.654Z,15.04
2023-04-15T11:52:58.029Z,15.16
2023-04-15T11:55:27.463Z,14.93
2023-04-15T11:58:09.471Z,13.90
2023-04-15T12:00:39.900Z,14.56
2023-04-15T12:03:15.722Z,14.87
2023-04-15T12:06:10.494Z,15.20
2023-04-15T12:08:58.507Z,15.47
2023-04-15T12:11:35.423Z,16.05
2023-04-15T12:14:12.794Z,15.97
2023-04-15T12:16:46.650Z,15.55
2023-04-15T12:19:20.320Z,15.89
2023-04-15T12:21:49.839Z,15.64
2023-04-15T12:24:22.209Z,15.81
2023-04-15T12:26:52.043Z,15.65
2023-04-15T12:29:22.356Z,15.38
2023-04-15T12:31:57.223Z,15.75
2023-04-15T12:34:30.494Z,15.67
2023-04-15T12:36:59.903Z,14.54
2023-04-15T12:39:30.857Z,14.85
2023-04-15T12:42:00.453Z,14.34
2023-04-15T12:44:29.984Z,14.36
2023-04-15T12:47:00.170Z,14.72
2023-04-15T12:49:29.731Z,14.59
2023-04-15T12:51:59.609Z,15.27
2023-04-15T12:54:28.115Z,15.50
2023-04-15T12:56:56.784Z,16.02
2023-04-15T12:59:25.499Z,16.15
2023-04-15T13:01:55.797Z,16.36
2023-04-15T13:04:25.762Z,15.85
2023-04-15T13:06:54.265Z,16.32
2023-04-15T13:09:23.241Z,15.99
2023-04-15T13:11:52.939Z,14.73
2023-04-15T13:14:21.456Z,15.07
2023-04-15T13:16:50.000Z,14.46
2023-04-15T13:19:18.304Z,14.42
2023-04-15T13:21:48.600Z,14.48
2023-04-15T13:24:16.754Z,14.99
2023-04-15T13:26:44.964Z,15.31
2023-04-15T13:29:14.211Z,15.31
2023-04-15T13:31:42.244Z,15.53
2023-04-15T13:34:10.394Z,15.37
2023-04-15T13:36:38.836Z,15.03
2023-04-15T13:39:08.487Z,15.10
2023-04-15T13:41:37.536Z,15.41
2023-04-15T13:44:06.530Z,15.50
2023-04-15T13:46:35.029Z,15.67
2023-04-15T13:49:03.187Z,15.48
2023-04-15T13:51:31.922Z,15.40
2023-04-15T13:54:00.072Z,15.30
2023-04-15T13:56:32.266Z,15.07
2023-04-15T13:59:02.382Z,14.66
2023-04-15T14:01:30.351Z,14.54
2023-04-15T14:03:58.621Z,14.56
2023-04-15T14:06:27.303Z,14.39
2023-04-15T14:08:56.281Z,14.64
2023-04-15T14:11:24.497Z,14.89
2023-04-15T14:13:54.419Z,15.03
2023-04-15T14:16:22.761Z,14.65
2023-04-15T14:18:51.050Z,14.42
2023-04-15T14:21:19.085Z,13.97
2023-04-15T14:23:47.660Z,14.05
2023-04-15T14:26:15.726Z,14.17
2023-04-15T14:28:45.138Z,14.34
2023-04-15T14:31:15.656Z,14.61
2023-04-15T14:33:43.694Z,14.31
2023-04-15T14:36:12.017Z,14.13
2023-04-15T14:38:41.167Z,14.13
2023-04-15T14:41:09.965Z,14.10
2023-04-15T14:43:39.887Z,14.17
2023-04-15T14:46:08.704Z,14.34
2023-04-15T14:48:39.768Z,14.08
2023-04-15T14:51:08.643Z,14.11
2023-04-15T14:53:37.261Z,13.97
2023-04-15T14:56:05.768Z,13.95
2023-04-15T14:58:36.380Z,13.56
2023-04-15T15:01:05.667Z,13.54
2023-04-15T15:03:34.563Z,13.77
2023-04-15T15:06:04.596Z,13.73
2023-04-15T15:08:32.967Z,13.67
2023-04-15T15:11:01.237Z,13.60
2023-04-15T15:13:29.486Z,13.57
2023-04-15T15:15:58.653Z,13.66
2023-04-15T15:18:26.785Z,13.59
2023-04-15T15:20:54.886Z,13.83
2023-04-15T15:23:24.480Z,13.98
2023-04-15T15:25:52.614Z,13.63
2023-04-15T15:28:21.819Z,13.50
2023-04-15T15:30:49.720Z,13.70
2023-04-15T15:33:18.096Z,13.80
2023-04-15T15:35:48.525Z,13.63
2023-04-15T15:38:17.071Z,13.56
2023-04-15T15:40:46.731Z,13.81
2023-04-15T15:43:14.806Z,13.66
2023-04-15T15:45:42.903Z,13.78
2023-04-15T15:48:11.178Z,13.80
2023-04-15T15:50:39.499Z,13.70
2023-04-15T15:53:08.838Z,13.62
2023-04-15T15:55:36.864Z,13.73
2023-04-15T15:58:06.803Z,13.63
2023-04-15T16:00:35.247Z,13.84
2023-04-15T16:03:07.222Z,13.94
2023-04-15T16:05:36.175Z,13.81
2023-04-15T16:08:04.716Z,13.62
2023-04-15T16:10:33.379Z,13.49
2023-04-15T16:13:02.213Z,13.64
2023-04-15T16:15:32.419Z,13.49
2023-04-15T16:18:02.794Z,13.47
2023-04-15T16:20:31.112Z,13.32
2023-04-15T16:22:59.995Z,13.30
2023-04-15T16:25:28.301Z,13.20
2023-04-15T16:28:03.484Z,13.01
2023-04-15T16:30:41.811Z,12.87
2023-04-15T16:33:10.827Z,12.82
2023-04-15T16:35:38.932Z,12.89
2023-04-15T16:38:07.119Z,12.91
2023-04-15T16:40:35.393Z,12.65
2023-04-15T16:43:04.601Z,12.53
2023-04-15T16:45:32.955Z,12.53
2023-04-15T16:48:02.502Z,12.53
2023-04-15T16:50:31.591Z,12.41
2023-04-15T16:52:59.709Z,12.31
2023-04-15T16:55:28.388Z,12.23
2023-04-15T16:58:02.172Z,12.10
2023-04-15T17:00:33.352Z,12.09
2023-04-15T17:03:04.058Z,12.02
2023-04-15T17:05:32.376Z,11.94
2023-04-15T17:08:00.525Z,11.89
2023-04-15T17:10:29.580Z,11.86
2023-04-15T17:12:58.269Z,11.82
2023-04-15T17:15:27.468Z,11.66
2023-04-15T17:17:56.072Z,11.63
2023-04-15T17:20:26.665Z,11.58
2023-04-15T17:22:54.992Z,11.49
2023-04-15T17:25:24.369Z,11.38
2023-04-15T17:27:52.780Z,11.34
2023-04-15T17:30:22.346Z,11.28
2023-04-15T17:32:52.412Z,11.27
2023-04-15T17:35:21.215Z,11.24
2023-04-15T17:37:52.077Z,11.22
2023-04-15T17:40:20.539Z,11.14
2023-04-15T17:42:49.273Z,11.14
2023-04-15T17:45:18.387Z,11.04
2023-04-15T17:47:46.909Z,10.90
2023-04-15T17:50:26.815Z,10.84
2023-04-15T17:52:58.050Z,10.74
2023-04-15T17:55:26.343Z,10.66
2023-04-15T17:57:54.576Z,10.67
2023-04-15T18:00:23.466Z,10.60
2023-04-15T18:02:51.858Z,10.56
2023-04-15T18:05:20.329Z,10.49
2023-04-15T18:07:49.273Z,10.56
2023-04-15T18:10:34.359Z,10.43
2023-04-15T18:13:03.663Z,10.28
2023-04-15T18:15:31.920Z,10.26
2023-04-15T18:18:00.973Z,10.19
2023-04-15T18:20:30.307Z,10.15
2023-04-15T18:22:58.511Z,10.08
2023-04-15T18:28:33.332Z,10.12
2023-04-15T18:31:01.652Z,10.11
2023-04-15T18:33:29.889Z,10.02
2023-04-15T18:35:59.247Z,9.97
2023-04-15T18:38:27.686Z,9.85
2023-04-15T18:40:57.232Z,9.81
2023-04-15T18:43:25.475Z,9.77
2023-04-15T18:45:54.733Z,9.74
2023-04-15T18:51:32.669Z,9.65
2023-04-15T18:54:00.797Z,9.65
2023-04-15T18:56:31.316Z,9.65
2023-04-15T18:59:08.586Z,9.62
2023-04-15T19:01:47.899Z,9.57
2023-04-15T19:04:19.040Z,9.47
2023-04-15T19:06:48.338Z,9.38
2023-04-15T19:09:17.226Z,9.41
2023-04-15T19:11:47.763Z,9.41
2023-04-15T19:14:16.125Z,9.29
2023-04-15T19:16:47.316Z,9.23
2023-04-15T19:19:15.874Z,9.15
2023-04-15T19:21:45.561Z,9.13
2023-04-15T19:24:13.647Z,9.10
2023-04-15T19:26:41.908Z,9.07
2023-04-15T19:29:11.477Z,9.03
2023-04-15T19:31:39.580Z,8.99
2023-04-15T19:34:07.670Z,8.92
2023-04-15T19:36:36.066Z,8.80
2023-04-15T19:39:06.210Z,8.78
2023-04-15T19:41:34.717Z,8.73
2023-04-15T19:44:03.233Z,8.59
2023-04-15T19:46:33.156Z,8.56
2023-04-15T19:49:01.709Z,8.58
2023-04-15T19:51:29.896Z,8.51
2023-04-15T19:53:59.580Z,8.54
2023-04-15T19:56:27.873Z,8.56
2023-04-15T19:58:56.073Z,8.51
2023-04-15T20:01:24.297Z,8.56
2023-04-15T20:03:54.516Z,8.49
2023-04-15T20:06:23.117Z,8.41
2023-04-15T20:08:51.808Z,8.44
2023-04-15T20:11:20.181Z,8.41
2023-04-15T20:13:54.312Z,8.40
2023-04-15T20:16:22.501Z,8.35
2023-04-15T20:18:51.260Z,8.35
2023-04-15T20:21:20.832Z,8.25
2023-04-15T20:23:49.061Z,8.16
2023-04-15T20:26:18.226Z,8.10
2023-04-15T20:28:46.318Z,8.07
2023-04-15T20:31:14.494Z,8.18
2023-04-15T20:33:42.568Z,8.16
2023-04-15T20:36:10.621Z,8.07
2023-04-15T20:38:40.209Z,7.98
2023-04-15T20:41:08.238Z,7.84
2023-04-15T20:43:36.300Z,7.84
2023-04-15T20:46:13.870Z,7.79
2023-04-15T20:48:49.013Z,7.77
2023-04-15T20:51:17.124Z,7.76
2023-04-15T20:53:46.899Z,7.70
2023-04-15T20:56:15.157Z,7.72
2023-04-15T20:58:43.312Z,7.65
2023-04-15T21:01:11.369Z,7.62
2023-04-15T21:03:39.657Z,7.63
2023-04-15T21:06:08.040Z,7.63
2023-04-15T21:08:36.262Z,7.56
2023-04-15T21:11:05.935Z,7.55
2023-04-15T21:13:34.133Z,7.55
2023-04-15T21:16:02.442Z,7.56
2023-04-15T21:18:30.644Z,7.52
2023-04-15T21:20:59.307Z,7.46
2023-04-15T21:23:28.687Z,7.43
2023-04-15T21:25:56.736Z,7.41
2023-04-15T21:28:28.019Z,7.22
2023-04-15T21:30:56.800Z,7.31
2023-04-15T21:33:25.237Z,7.22
2023-04-15T21:35:54.353Z,7.25
2023-04-15T21:38:23.542Z,7.21
2023-04-15T21:40:52.026Z,7.15
2023-04-15T21:43:21.642Z,7.15
2023-04-15T21:46:21.213Z,7.09
2023-04-15T21:48:39.727Z,7.07
2023-04-15T21:51:07.936Z,7.07
2023-04-15T21:53:36.074Z,7.04
2023-04-15T21:56:04.403Z,7.08
2023-04-15T21:58:32.655Z,7.02
2023-04-15T22:01:02.363Z,7.02
2023-04-15T22:03:33.522Z,7.00
2023-04-15T22:06:02.414Z,6.95
2023-04-15T22:08:33.641Z,6.95
2023-04-15T22:11:07.056Z,6.95
2023-04-15T22:13:35.372Z,7.00
2023-04-15T22:16:04.924Z,7.00
2023-04-15T22:18:32.999Z,7.01
2023-04-15T22:21:01.787Z,7.05
2023-04-15T22:23:29.820Z,7.01
2023-04-15T22:25:58.135Z,7.02
2023-04-15T22:28:26.148Z,7.07
2023-04-15T22:30:54.774Z,7.12
2023-04-15T22:33:24.389Z,7.09
2023-04-15T22:35:52.437Z,7.11
2023-04-15T22:38:20.575Z,7.11
2023-04-15T22:40:48.645Z,7.09
2023-04-15T22:43:16.698Z,7.12
2023-04-15T22:45:51.021Z,7.11
2023-04-15T22:48:19.269Z,7.04
2023-04-15T22:50:49.006Z,7.04
2023-04-15T22:53:18.087Z,7.02
2023-04-15T22:55:47.718Z,7.01
2023-04-15T22:58:16.475Z,7.05
2023-04-15T23:00:44.551Z,6.98
2023-04-15T23:03:12.973Z,7.00
2023-04-15T23:05:41.587Z,7.01
2023-04-15T23:08:11.113Z,7.07
2023-04-15T23:10:40.115Z,7.08
2023-04-15T23:13:08.216Z,7.07
2023-04-15T23:15:36.647Z,7.07
2023-04-15T23:18:04.878Z,7.12
2023-04-15T23:20:33.109Z,7.07
2023-04-15T23:23:01.224Z,7.04
2023-04-15T23:25:30.815Z,7.04
2023-04-15T23:27:58.858Z,7.05
2023-04-15T23:30:27.064Z,6.98
2023-04-15T23:32:55.272Z,7.04
2023-04-15T23:35:23.716Z,7.02
2023-04-15T23:37:52.051Z,7.02
2023-04-15T23:40:20.193Z,7.07
2023-04-15T23:42:49.691Z,7.01
2023-04-15T23:45:17.795Z,6.97
2023-04-15T23:47:45.991Z,6.98
2023-04-15T23:50:14.260Z,6.94
2023-04-15T23:52:42.360Z,6.91
2023-04-15T23:55:11.175Z,6.88
2023-04-15T23:57:39.123Z,6.88
